Time;durP1;ratioP1;P1;durP2;ratioP2;P2;SDS_P1;SDS_P2;PMS_P1;PMS_P2;Temp;Humidity;BMP_temperature;BMP_pressure;BME280_temperature;BME280_humidity;BME280_pressure;Samples;Min_cycle;Max_cycle;Signal;HPM_P1;HPM_P2
2021/05/08 00:00:01;;;;;;;5.28;4.15;;;15.20;79.10;;;;;;5034810;28;20486;-63
2021/05/08 00:02:26;;;;;;;7.32;4.97;;;15.20;79.10;;;;;;5024266;28;20022;-63
2021/05/08 00:04:52;;;;;;;6.90;4.82;;;15.30;78.90;;;;;;5029256;28;20377;-63
2021/05/08 00:07:18;;;;;;;6.80;5.10;;;15.30;78.80;;;;;;5016184;28;20026;-63
2021/05/08 00:09:43;;;;;;;5.80;4.57;;;15.30;78.70;;;;;;5032422;28;20022;-63
2021/05/08 00:12:10;;;;;;;8.13;5.07;;;15.30;78.80;;;;;;5034336;28;20109;-63
2021/05/08 00:14:35;;;;;;;7.47;4.82;;;15.30;78.80;;;;;;5033176;28;20030;-63
2021/05/08 00:17:01;;;;;;;10.93;6.15;;;15.40;78.80;;;;;;5027616;28;20076;-63
2021/05/08 00:19:27;;;;;;;13.02;5.95;;;15.40;78.80;;;;;;5033996;28;20465;-63
2021/05/08 00:21:52;;;;;;;12.10;6.55;;;15.40;78.60;;;;;;5034388;28;20482;-63
2021/05/08 00:24:19;;;;;;;13.18;7.72;;;15.40;78.60;;;;;;5031864;28;20037;-63
2021/05/08 00:26:45;;;;;;;15.52;7.65;;;15.40;78.50;;;;;;5034772;28;20373;-63
2021/05/08 00:29:11;;;;;;;14.77;7.40;;;15.40;78.50;;;;;;5034299;28;20033;-63
2021/05/08 00:31:37;;;;;;;15.15;7.32;;;15.40;78.60;;;;;;5032747;28;20366;-63
2021/05/08 00:34:03;;;;;;;8.68;5.95;;;15.50;78.80;;;;;;5030549;28;20048;-63
2021/05/08 00:36:29;;;;;;;7.43;5.75;;;15.50;78.50;;;;;;5032315;28;20029;-62
2021/05/08 00:38:55;;;;;;;7.05;5.47;;;15.50;78.50;;;;;;5033927;28;20037;-64
2021/05/08 00:41:20;;;;;;;6.95;5.30;;;15.50;78.40;;;;;;5034186;28;20036;-64
2021/05/08 00:43:46;;;;;;;7.25;4.93;;;15.50;78.50;;;;;;5033636;28;20036;-64
2021/05/08 00:46:13;;;;;;;7.57;5.57;;;15.50;78.40;;;;;;5034392;28;20555;-64
2021/05/08 00:48:39;;;;;;;6.13;4.93;;;15.50;78.30;;;;;;5033197;28;20014;-64
2021/05/08 00:51:05;;;;;;;6.45;5.00;;;15.50;78.30;;;;;;5030800;28;20104;-64
2021/05/08 00:53:31;;;;;;;8.45;5.40;;;15.50;78.30;;;;;;5027311;28;20049;-64
2021/05/08 00:55:57;;;;;;;7.07;5.43;;;15.50;78.30;;;;;;5033659;28;20432;-64
2021/05/08 00:58:22;;;;;;;6.18;4.32;;;15.40;78.40;;;;;;5032510;28;20029;-64
2021/05/08 01:00:52;;;;;;;7.20;4.63;;;15.40;78.00;;;;;;5034151;28;20450;-64
2021/05/08 01:03:18;;;;;;;5.38;4.32;;;15.40;77.60;;;;;;5033904;28;20033;-64
2021/05/08 01:05:44;;;;;;;8.23;5.20;;;15.40;77.50;;;;;;5022057;28;20367;-64
2021/05/08 01:08:09;;;;;;;6.70;4.93;;;15.40;77.60;;;;;;5031664;28;20520;-64
2021/05/08 01:10:35;;;;;;;6.53;5.00;;;15.30;77.30;;;;;;5033758;28;20465;-64
2021/05/08 01:13:02;;;;;;;8.05;5.15;;;15.30;77.40;;;;;;5029397;28;20465;-64
2021/05/08 01:15:28;;;;;;;7.85;5.40;;;15.40;77.30;;;;;;5028923;28;20022;-64
2021/05/08 01:17:55;;;;;;;6.70;5.88;;;15.30;77.00;;;;;;5027379;28;20136;-64
2021/05/08 01:20:21;;;;;;;7.22;5.90;;;15.30;77.10;;;;;;5015160;28;20605;-64
2021/05/08 01:22:49;;;;;;;9.15;6.22;;;15.20;77.10;;;;;;5028685;28;20025;-64
2021/05/08 01:25:21;;;;;;;7.50;5.97;;;15.20;77.10;;;;;;5032955;28;20105;-64
2021/05/08 01:27:49;;;;;;;6.93;5.22;;;15.20;77.20;;;;;;5033211;28;20028;-64
2021/05/08 01:30:17;;;;;;;8.30;5.93;;;15.30;77.80;;;;;;5031296;28;20028;-64
2021/05/08 01:32:44;;;;;;;9.20;5.93;;;15.30;77.80;;;;;;5028703;28;20033;-64
2021/05/08 01:35:10;;;;;;;8.30;6.03;;;15.30;78.00;;;;;;5027879;28;20390;-64
2021/05/08 01:37:36;;;;;;;6.88;5.57;;;15.30;78.00;;;;;;5025636;28;20029;-64
2021/05/08 01:40:06;;;;;;;7.65;5.63;;;15.30;78.00;;;;;;5029495;28;20064;-64
2021/05/08 01:42:32;;;;;;;6.57;4.90;;;15.30;78.10;;;;;;5032799;28;20080;-64
2021/05/08 01:45:04;;;;;;;7.85;5.00;;;15.30;77.70;;;;;;5033174;28;20140;-64
2021/05/08 01:47:29;;;;;;;5.30;4.80;;;15.30;77.60;;;;;;5030119;28;20549;-64
2021/05/08 01:49:55;;;;;;;6.28;4.60;;;15.30;77.40;;;;;;5029146;28;20029;-64
2021/05/08 01:52:20;;;;;;;7.55;4.40;;;15.20;77.40;;;;;;5026427;28;20021;-64
2021/05/08 01:54:46;;;;;;;6.82;4.50;;;15.20;77.10;;;;;;5033436;28;20056;-63
2021/05/08 01:57:12;;;;;;;6.13;4.38;;;15.20;77.20;;;;;;5006455;28;20026;-63
2021/05/08 01:59:37;;;;;;;6.47;4.90;;;15.20;77.20;;;;;;5031643;28;20029;-64
2021/05/08 02:02:03;;;;;;;6.85;4.80;;;15.10;77.20;;;;;;5027469;28;20067;-64
2021/05/08 02:04:29;;;;;;;6.90;5.18;;;15.10;77.30;;;;;;5032994;28;20021;-64
2021/05/08 02:06:57;;;;;;;5.97;4.78;;;15.10;77.50;;;;;;5025454;28;20021;-64
2021/05/08 02:09:23;;;;;;;5.78;5.05;;;15.10;77.40;;;;;;5032172;28;20025;-63
2021/05/08 02:11:49;;;;;;;7.15;5.88;;;15.10;77.30;;;;;;5032767;28;20017;-64
2021/05/08 02:14:14;;;;;;;7.25;5.53;;;15.10;77.40;;;;;;5030619;28;20037;-64
2021/05/08 02:16:40;;;;;;;9.40;5.78;;;15.10;77.30;;;;;;5028100;28;20480;-64
2021/05/08 02:19:06;;;;;;;7.80;6.18;;;15.10;77.30;;;;;;5032436;28;20147;-64
2021/05/08 02:21:34;;;;;;;8.00;6.00;;;15.10;77.40;;;;;;5023510;28;20025;-64
2021/05/08 02:24:00;;;;;;;8.75;6.28;;;15.10;77.60;;;;;;5019545;28;20042;-64
2021/05/08 02:26:26;;;;;;;8.93;6.63;;;15.10;77.60;;;;;;5011622;28;20037;-64
2021/05/08 02:28:51;;;;;;;8.32;6.35;;;15.20;77.90;;;;;;5026409;28;20560;-64
2021/05/08 02:31:17;;;;;;;7.90;6.63;;;15.20;78.00;;;;;;5025880;28;20020;-64
2021/05/08 02:33:42;;;;;;;8.43;6.25;;;15.20;77.80;;;;;;5032857;28;20029;-64
2021/05/08 02:36:08;;;;;;;9.57;5.85;;;15.30;77.90;;;;;;5031435;28;20036;-64
2021/05/08 02:38:34;;;;;;;7.85;5.43;;;15.30;78.10;;;;;;5026609;28;20026;-64
2021/05/08 02:41:00;;;;;;;8.68;6.00;;;15.30;78.10;;;;;;5031191;28;20065;-64
2021/05/08 02:43:25;;;;;;;10.40;5.95;;;15.30;78.00;;;;;;5027953;28;20053;-64
2021/05/08 02:45:51;;;;;;;8.10;4.70;;;15.30;77.80;;;;;;5029784;28;20057;-64
2021/05/08 02:48:17;;;;;;;7.35;5.40;;;15.40;77.50;;;;;;5025575;28;20083;-64
2021/05/08 02:50:42;;;;;;;7.90;5.30;;;15.30;77.30;;;;;;5029243;28;20036;-64
2021/05/08 02:53:08;;;;;;;6.80;5.35;;;15.30;77.40;;;;;;5032149;28;20056;-64
2021/05/08 02:55:34;;;;;;;8.43;5.32;;;15.40;77.70;;;;;;5032392;28;20101;-64
2021/05/08 02:58:02;;;;;;;9.35;5.53;;;15.40;78.00;;;;;;5032602;28;20053;-64
2021/05/08 03:00:28;;;;;;;10.05;5.00;;;15.40;78.10;;;;;;5032340;28;20095;-64
2021/05/08 03:02:53;;;;;;;7.55;5.22;;;15.40;78.00;;;;;;5032318;28;20533;-64
2021/05/08 03:05:19;;;;;;;6.68;5.70;;;15.40;77.80;;;;;;5031693;28;20109;-64
2021/05/08 03:07:45;;;;;;;5.85;4.95;;;15.40;77.80;;;;;;5031537;28;20029;-64
2021/05/08 03:10:11;;;;;;;6.22;4.72;;;15.30;77.80;;;;;;5026390;28;20034;-64
2021/05/08 03:12:37;;;;;;;9.25;5.53;;;15.40;78.70;;;;;;5032362;28;20021;-64
2021/05/08 03:15:05;;;;;;;5.88;5.28;;;15.40;78.30;;;;;;5029650;28;20477;-64
2021/05/08 03:17:31;;;;;;;8.77;5.30;;;15.40;78.50;;;;;;5022749;28;20030;-64
2021/05/08 03:19:56;;;;;;;6.93;5.03;;;15.40;78.90;;;;;;5036198;28;20041;-64
2021/05/08 03:22:22;;;;;;;10.40;5.57;;;15.40;78.90;;;;;;5035654;28;20030;-64
2021/05/08 03:24:48;;;;;;;5.90;5.00;;;15.40;78.90;;;;;;5035316;28;20021;-64
2021/05/08 03:27:14;;;;;;;6.30;5.07;;;15.40;79.20;;;;;;5035136;28;20021;-64
2021/05/08 03:29:39;;;;;;;8.40;5.43;;;15.40;79.30;;;;;;5035930;28;20024;-64
2021/05/08 03:32:05;;;;;;;8.50;5.85;;;15.40;79.30;;;;;;5035516;28;20049;-64
2021/05/08 03:34:31;;;;;;;8.65;5.82;;;15.40;79.50;;;;;;5035881;28;20026;-64
2021/05/08 03:36:57;;;;;;;9.38;6.13;;;15.40;79.70;;;;;;5032756;28;20528;-64
2021/05/08 03:39:22;;;;;;;7.90;6.13;;;15.40;79.70;;;;;;5019433;28;20042;-64
2021/05/08 03:41:48;;;;;;;10.07;6.28;;;15.40;79.40;;;;;;5029077;28;20116;-64
2021/05/08 03:44:14;;;;;;;7.60;6.18;;;15.40;79.50;;;;;;5035435;28;20389;-64
2021/05/08 03:46:39;;;;;;;8.20;5.95;;;15.40;79.80;;;;;;5034560;28;20030;-64
2021/05/08 03:49:05;;;;;;;12.50;7.40;;;15.40;79.70;;;;;;5035603;28;20025;-64
2021/05/08 03:51:31;;;;;;;12.55;7.35;;;15.40;79.50;;;;;;5013747;28;20026;-64
2021/05/08 03:53:57;;;;;;;9.60;7.07;;;15.40;80.30;;;;;;5033172;28;20064;-64
2021/05/08 03:56:23;;;;;;;9.65;6.40;;;15.40;79.50;;;;;;5034631;28;20041;-64
2021/05/08 03:58:49;;;;;;;9.52;6.32;;;15.40;79.30;;;;;;5034972;28;20028;-64
2021/05/08 04:01:15;;;;;;;8.68;6.55;;;15.40;79.40;;;;;;5035330;28;20037;-64
2021/05/08 04:03:41;;;;;;;8.82;6.15;;;15.40;79.20;;;;;;5021729;28;20026;-64
2021/05/08 04:06:07;;;;;;;8.00;7.13;;;15.40;79.70;;;;;;5035066;28;20376;-64
2021/05/08 04:08:32;;;;;;;8.38;6.80;;;15.40;79.80;;;;;;5034408;28;20507;-64
2021/05/08 04:10:58;;;;;;;7.65;6.13;;;15.40;79.90;;;;;;5031735;28;20021;-64
2021/05/08 04:13:24;;;;;;;8.02;6.68;;;15.40;80.00;;;;;;5024118;28;20033;-64
2021/05/08 04:15:50;;;;;;;7.30;5.95;;;15.40;80.00;;;;;;5032547;28;20085;-64
2021/05/08 04:18:17;;;;;;;6.53;5.80;;;15.40;79.90;;;;;;5034792;28;20120;-64
2021/05/08 04:20:45;;;;;;;9.75;6.45;;;15.40;80.20;;;;;;5022704;28;20026;-64
2021/05/08 04:23:11;;;;;;;7.90;6.20;;;15.40;80.30;;;;;;5035084;28;20385;-64
2021/05/08 04:25:37;;;;;;;9.27;6.47;;;15.40;80.20;;;;;;5034522;28;20013;-64
2021/05/08 04:28:02;;;;;;;10.70;6.57;;;15.40;80.40;;;;;;5034304;28;20021;-64
2021/05/08 04:30:31;;;;;;;10.27;6.85;;;15.40;80.60;;;;;;5023168;28;20466;-64
2021/05/08 04:32:57;;;;;;;10.45;7.47;;;15.40;80.90;;;;;;5034826;28;20026;-64
2021/05/08 04:35:22;;;;;;;8.52;6.38;;;15.40;81.10;;;;;;5034377;28;20021;-64
2021/05/08 04:37:48;;;;;;;10.45;7.80;;;15.30;81.20;;;;;;5023231;28;20054;-64
2021/05/08 04:40:14;;;;;;;10.23;7.00;;;15.30;81.40;;;;;;5028808;28;20055;-64
2021/05/08 04:42:39;;;;;;;10.25;7.22;;;15.30;81.50;;;;;;5024496;28;20091;-64
2021/05/08 04:45:07;;;;;;;9.30;6.50;;;15.30;81.70;;;;;;5034655;28;20036;-64
2021/05/08 04:47:33;;;;;;;12.32;7.05;;;15.30;81.50;;;;;;5034711;28;20044;-64
2021/05/08 04:50:00;;;;;;;8.68;6.00;;;15.30;81.80;;;;;;5033755;28;20021;-64
2021/05/08 04:52:26;;;;;;;9.68;6.38;;;15.20;82.00;;;;;;5034135;28;20025;-64
2021/05/08 04:54:52;;;;;;;10.40;6.93;;;15.20;82.30;;;;;;5034777;28;20121;-64
2021/05/08 04:57:18;;;;;;;9.90;6.97;;;15.20;82.40;;;;;;5023800;28;20030;-64
2021/05/08 04:59:43;;;;;;;7.45;6.00;;;15.20;82.60;;;;;;5034328;28;20043;-64
2021/05/08 05:02:09;;;;;;;8.98;6.68;;;15.20;82.80;;;;;;5034085;28;20410;-64
2021/05/08 05:04:35;;;;;;;10.23;7.22;;;15.20;83.50;;;;;;5033978;28;20090;-64
2021/05/08 05:07:01;;;;;;;7.85;6.60;;;15.20;82.90;;;;;;5034044;28;20025;-64
2021/05/08 05:09:28;;;;;;;7.55;6.70;;;15.20;83.00;;;;;;5034226;28;20045;-63
2021/05/08 05:11:54;;;;;;;10.07;7.35;;;15.10;83.00;;;;;;5025073;28;20030;-64
2021/05/08 05:14:20;;;;;;;9.02;6.95;;;15.10;83.20;;;;;;5027143;28;20025;-64
2021/05/08 05:16:45;;;;;;;9.65;7.43;;;15.10;83.20;;;;;;5028522;28;20021;-64
2021/05/08 05:19:11;;;;;;;9.88;6.95;;;15.10;83.40;;;;;;5028618;28;20026;-64
2021/05/08 05:21:37;;;;;;;9.32;7.15;;;15.10;83.50;;;;;;5033620;28;20034;-63
2021/05/08 05:24:03;;;;;;;8.02;5.95;;;15.10;83.70;;;;;;5033738;28;20481;-64
2021/05/08 05:26:29;;;;;;;8.55;6.30;;;15.10;83.80;;;;;;5033605;28;20021;-64
2021/05/08 05:28:55;;;;;;;9.43;6.40;;;15.10;83.90;;;;;;5033957;28;20424;-64
2021/05/08 05:31:20;;;;;;;9.88;6.72;;;15.10;83.90;;;;;;5033467;28;20072;-64
2021/05/08 05:33:46;;;;;;;7.15;5.72;;;15.10;83.80;;;;;;5033523;28;20017;-64
2021/05/08 05:36:12;;;;;;;8.23;5.97;;;15.10;83.90;;;;;;5029687;28;20044;-64
2021/05/08 05:38:37;;;;;;;8.38;6.20;;;15.10;84.00;;;;;;5029460;28;20424;-64
2021/05/08 05:41:03;;;;;;;6.78;5.13;;;15.10;84.00;;;;;;5031876;28;20026;-64
2021/05/08 05:43:29;;;;;;;6.18;5.40;;;15.20;83.90;;;;;;5033387;28;20041;-64
2021/05/08 05:45:54;;;;;;;8.18;5.47;;;15.20;84.00;;;;;;5031056;28;20067;-64
2021/05/08 05:48:20;;;;;;;7.38;5.70;;;15.20;83.80;;;;;;5031089;28;20029;-64
2021/05/08 05:50:46;;;;;;;7.25;5.53;;;15.20;83.70;;;;;;5029157;28;20056;-64
2021/05/08 05:53:13;;;;;;;8.10;5.85;;;15.10;83.50;;;;;;5032708;28;20049;-64
2021/05/08 05:55:38;;;;;;;8.02;6.82;;;15.10;83.40;;;;;;5032446;28;20025;-64
2021/05/08 05:58:04;;;;;;;9.05;7.45;;;15.10;83.80;;;;;;5032854;28;20429;-64
2021/05/08 06:00:30;;;;;;;7.65;6.85;;;15.00;83.60;;;;;;5031788;28;20040;-64
2021/05/08 06:02:56;;;;;;;8.48;6.78;;;15.00;84.00;;;;;;5033442;28;20022;-64
2021/05/08 06:05:21;;;;;;;8.27;6.50;;;14.90;83.80;;;;;;5030673;28;20113;-64
2021/05/08 06:07:47;;;;;;;8.07;5.82;;;14.90;84.00;;;;;;5032313;28;20044;-64
2021/05/08 06:10:14;;;;;;;6.93;5.93;;;14.90;84.10;;;;;;5026317;28;20541;-64
2021/05/08 06:12:40;;;;;;;6.95;5.38;;;14.90;84.20;;;;;;5027885;28;20148;-64
2021/05/08 06:15:07;;;;;;;6.93;5.50;;;14.90;84.40;;;;;;5023783;28;20117;-64
2021/05/08 06:17:34;;;;;;;5.30;4.53;;;14.80;84.60;;;;;;5032956;28;20021;-64
2021/05/08 06:19:59;;;;;;;5.50;4.40;;;14.90;84.50;;;;;;5032696;28;20041;-63
2021/05/08 06:22:25;;;;;;;4.50;3.83;;;14.80;84.30;;;;;;5032348;28;20052;-64
2021/05/08 06:24:51;;;;;;;5.18;4.10;;;14.80;84.20;;;;;;5032832;28;20021;-64
2021/05/08 06:27:16;;;;;;;5.03;4.20;;;14.80;84.30;;;;;;5030488;28;20080;-64
2021/05/08 06:29:42;;;;;;;5.35;4.00;;;14.80;84.50;;;;;;5031671;28;20068;-64
2021/05/08 06:32:08;;;;;;;4.93;3.75;;;14.80;84.60;;;;;;5027290;28;20056;-64
2021/05/08 06:34:33;;;;;;;4.72;3.92;;;14.80;84.40;;;;;;5032665;28;20026;-64
2021/05/08 06:37:00;;;;;;;4.70;3.53;;;14.80;84.40;;;;;;5032610;28;20040;-64
2021/05/08 06:39:27;;;;;;;5.20;3.75;;;14.80;84.60;;;;;;5032903;28;20163;-64
2021/05/08 06:41:52;;;;;;;4.85;3.55;;;14.80;84.80;;;;;;5031642;28;20025;-63
2021/05/08 06:44:19;;;;;;;3.80;3.47;;;14.80;85.00;;;;;;5032507;28;20098;-64
2021/05/08 06:46:45;;;;;;;3.80;3.35;;;14.80;85.10;;;;;;5031722;28;20078;-64
2021/05/08 06:49:11;;;;;;;5.90;3.65;;;14.80;85.00;;;;;;5037049;28;20112;-64
2021/05/08 06:51:36;;;;;;;3.75;3.30;;;14.80;85.10;;;;;;5036260;28;20493;-64
2021/05/08 06:54:02;;;;;;;4.85;3.65;;;14.80;84.90;;;;;;5036084;28;20060;-64
2021/05/08 06:56:30;;;;;;;5.00;3.40;;;14.80;84.80;;;;;;5036397;28;20028;-64
2021/05/08 06:58:55;;;;;;;4.18;3.38;;;14.80;84.90;;;;;;5035328;28;20034;-64
2021/05/08 07:01:21;;;;;;;4.45;3.15;;;14.80;84.80;;;;;;5028381;28;20509;-64
2021/05/08 07:03:46;;;;;;;4.20;3.40;;;14.70;84.80;;;;;;5021430;28;20040;-64
2021/05/08 07:06:12;;;;;;;3.95;3.53;;;14.70;84.70;;;;;;5035077;28;20033;-64
2021/05/08 07:08:38;;;;;;;4.47;3.67;;;14.70;84.90;;;;;;5027752;28;20044;-63
2021/05/08 07:11:04;;;;;;;4.65;3.65;;;14.60;85.10;;;;;;5032837;28;20028;-64
2021/05/08 07:13:30;;;;;;;4.07;3.42;;;14.60;85.10;;;;;;5010402;28;20045;-64
2021/05/08 07:15:56;;;;;;;4.13;3.70;;;14.60;85.50;;;;;;5032477;28;20037;-64
2021/05/08 07:18:23;;;;;;;4.07;3.50;;;14.60;85.60;;;;;;5034924;28;20068;-64
2021/05/08 07:20:49;;;;;;;4.93;3.92;;;14.60;85.60;;;;;;5027920;28;20034;-63
2021/05/08 07:23:15;;;;;;;5.20;4.15;;;14.60;85.60;;;;;;5028009;28;20083;-63
2021/05/08 07:25:40;;;;;;;5.50;4.20;;;14.60;85.70;;;;;;5027630;28;20021;-64
2021/05/08 07:28:13;;;;;;;5.72;4.20;;;14.60;85.80;;;;;;5030477;28;20053;-64
2021/05/08 07:30:41;;;;;;;4.72;4.15;;;14.60;85.60;;;;;;5031489;28;20022;-64
2021/05/08 07:33:07;;;;;;;7.20;4.70;;;14.60;85.90;;;;;;5023663;28;20386;-64
2021/05/08 07:35:33;;;;;;;6.07;4.60;;;14.50;86.10;;;;;;5030219;28;20417;-64
2021/05/08 07:37:59;;;;;;;5.88;4.63;;;14.60;86.00;;;;;;5030470;28;20053;-64
2021/05/08 07:40:25;;;;;;;5.50;4.53;;;14.60;86.10;;;;;;5032016;28;20123;-63
2021/05/08 07:42:51;;;;;;;6.22;5.13;;;14.60;86.10;;;;;;5026795;28;20020;-65
2021/05/08 07:45:16;;;;;;;5.88;5.15;;;14.60;86.10;;;;;;5034388;28;20382;-64
2021/05/08 07:47:42;;;;;;;6.85;5.20;;;14.60;86.40;;;;;;5026283;28;20022;-63
2021/05/08 07:50:09;;;;;;;7.32;4.97;;;14.60;86.30;;;;;;5033005;28;20592;-64
2021/05/08 07:52:35;;;;;;;6.05;4.57;;;14.70;86.50;;;;;;5027549;28;20365;-64
2021/05/08 07:55:01;;;;;;;5.15;4.63;;;14.70;86.30;;;;;;5034147;28;20037;-64
2021/05/08 07:57:27;;;;;;;6.28;4.80;;;14.70;86.20;;;;;;5025630;28;20030;-64
2021/05/08 07:59:52;;;;;;;5.57;4.60;;;14.70;86.20;;;;;;5023581;28;20392;-64
2021/05/08 08:02:18;;;;;;;6.18;4.65;;;14.70;86.20;;;;;;5030627;28;20029;-64
2021/05/08 08:04:44;;;;;;;8.18;5.13;;;14.70;86.10;;;;;;5025428;28;20034;-63
2021/05/08 08:07:09;;;;;;;6.97;5.03;;;14.70;86.30;;;;;;5030773;28;20492;-64
2021/05/08 08:09:35;;;;;;;6.03;5.07;;;14.70;86.40;;;;;;5032650;28;20036;-64
2021/05/08 08:12:01;;;;;;;5.50;4.90;;;14.70;86.40;;;;;;5022969;28;20022;-63
2021/05/08 08:14:26;;;;;;;6.93;5.13;;;14.70;86.30;;;;;;5033193;28;20029;-64
2021/05/08 08:16:52;;;;;;;5.97;5.20;;;14.80;86.40;;;;;;5030263;28;20025;-63
2021/05/08 08:19:18;;;;;;;7.03;5.57;;;14.80;86.40;;;;;;5033645;28;20022;-64
2021/05/08 08:21:43;;;;;;;5.70;4.80;;;14.90;86.50;;;;;;5033848;28;20382;-63
2021/05/08 08:24:09;;;;;;;6.65;5.40;;;14.80;86.30;;;;;;5034164;28;20048;-64
2021/05/08 08:26:36;;;;;;;6.82;5.93;;;14.90;86.30;;;;;;5027770;28;20029;-64
2021/05/08 08:29:02;;;;;;;7.95;5.93;;;14.90;86.30;;;;;;5033901;28;20025;-64
2021/05/08 08:31:28;;;;;;;7.65;6.22;;;14.90;86.80;;;;;;5029796;28;20473;-64
2021/05/08 08:33:54;;;;;;;7.43;6.63;;;15.00;86.50;;;;;;5031382;28;20034;-64
2021/05/08 08:36:19;;;;;;;7.38;6.25;;;15.00;86.80;;;;;;5033697;28;20067;-63
2021/05/08 08:38:45;;;;;;;7.78;6.53;;;15.00;86.70;;;;;;5031982;28;20025;-64
2021/05/08 08:41:12;;;;;;;7.93;6.82;;;15.10;86.90;;;;;;5032403;28;20075;-64
2021/05/08 08:43:38;;;;;;;7.82;7.03;;;15.20;86.60;;;;;;5034136;28;20032;-64
2021/05/08 08:46:05;;;;;;;7.88;7.07;;;15.20;86.40;;;;;;5032535;28;20507;-64
2021/05/08 08:48:31;;;;;;;7.20;6.25;;;15.30;86.10;;;;;;5031204;28;20450;-64
2021/05/08 08:50:57;;;;;;;7.65;6.85;;;15.30;86.40;;;;;;5025964;28;20057;-64
2021/05/08 08:53:23;;;;;;;7.80;6.55;;;15.30;85.90;;;;;;5027127;28;20040;-64
2021/05/08 08:55:55;;;;;;;8.30;6.47;;;15.40;85.80;;;;;;5033019;28;20025;-64
2021/05/08 08:58:31;;;;;;;7.53;6.75;;;15.40;85.80;;;;;;5033934;28;20017;-64
2021/05/08 09:00:58;;;;;;;7.40;6.60;;;15.50;86.40;;;;;;5015393;28;20478;-63
2021/05/08 09:03:24;;;;;;;8.65;7.75;;;15.60;85.90;;;;;;5028416;28;20044;-64
2021/05/08 09:05:50;;;;;;;9.60;7.57;;;15.70;86.00;;;;;;5034500;28;20532;-64
2021/05/08 09:08:16;;;;;;;7.05;6.18;;;15.80;86.50;;;;;;5034154;28;20105;-64
2021/05/08 09:10:41;;;;;;;6.13;5.53;;;15.90;85.40;;;;;;5032953;28;20458;-64
2021/05/08 09:13:16;;;;;;;7.60;6.80;;;16.00;84.80;;;;;;5033855;28;20029;-64
2021/05/08 09:15:43;;;;;;;5.75;5.07;;;16.00;84.20;;;;;;5033371;28;20025;-64
2021/05/08 09:18:30;;;;;;;5.43;4.88;;;16.00;82.90;;;;;;5023734;28;20026;-64
2021/05/08 09:20:56;;;;;;;5.05;4.55;;;15.80;82.30;;;;;;5033688;28;20029;-64
2021/05/08 09:23:30;;;;;;;5.85;4.50;;;15.60;82.30;;;;;;5033822;28;20029;-64
2021/05/08 09:26:10;;;;;;;5.07;4.57;;;15.50;82.60;;;;;;5033650;28;20025;-64
2021/05/08 09:28:38;;;;;;;4.88;4.32;;;15.30;83.10;;;;;;5033820;28;20052;-64
2021/05/08 09:31:11;;;;;;;4.25;3.85;;;15.20;83.90;;;;;;5033418;28;20471;-64
2021/05/08 09:33:37;;;;;;;5.00;4.35;;;15.20;83.90;;;;;;5023091;28;20497;-64
2021/05/08 09:36:10;;;;;;;4.20;3.80;;;15.30;83.80;;;;;;5025071;28;20041;-64
2021/05/08 09:38:45;;;;;;;4.40;3.83;;;15.30;84.00;;;;;;5030308;28;20025;-64
2021/05/08 09:41:16;;;;;;;4.63;4.07;;;15.30;83.80;;;;;;5033979;28;20355;-64
2021/05/08 09:43:43;;;;;;;4.40;3.70;;;15.30;83.50;;;;;;5031468;28;20033;-64
2021/05/08 09:46:24;;;;;;;5.75;4.07;;;15.30;83.50;;;;;;5018663;28;20088;-64
2021/05/08 09:49:19;;;;;;;4.35;3.78;;;15.30;83.00;;;;;;5023341;28;20032;-64
2021/05/08 09:51:45;;;;;;;4.15;3.75;;;15.30;82.80;;;;;;5033405;28;20223;-64
2021/05/08 09:54:18;;;;;;;5.60;4.03;;;15.20;82.80;;;;;;5032832;28;20144;-64
2021/05/08 09:56:46;;;;;;;4.90;3.92;;;15.20;82.40;;;;;;5031809;28;20038;-64
2021/05/08 09:59:36;;;;;;;4.20;3.70;;;15.20;82.40;;;;;;5033640;28;20030;-64
2021/05/08 10:02:05;;;;;;;3.72;3.42;;;15.20;81.80;;;;;;5019927;28;20032;-64
2021/05/08 10:04:34;;;;;;;3.70;3.20;;;15.20;81.00;;;;;;5033099;28;20042;-64
2021/05/08 10:07:24;;;;;;;4.63;3.92;;;15.20;80.90;;;;;;5032441;28;20018;-64
2021/05/08 10:09:52;;;;;;;5.55;4.45;;;15.20;80.50;;;;;;5033459;28;20029;-64
2021/05/08 10:12:23;;;;;;;5.15;4.45;;;15.10;79.00;;;;;;5032955;28;20484;-64
2021/05/08 10:14:50;;;;;;;8.70;4.93;;;14.90;78.00;;;;;;5033357;28;20029;-64
2021/05/08 10:17:27;;;;;;;5.57;4.97;;;14.60;77.70;;;;;;5030788;28;20033;-64
2021/05/08 10:20:10;;;;;;;6.15;4.47;;;14.40;78.40;;;;;;5033279;28;20044;-64
2021/05/08 10:22:51;;;;;;;5.45;4.82;;;14.20;79.00;;;;;;5026329;28;20030;-64
2021/05/08 10:25:17;;;;;;;;;;;14.10;79.60;;;;;;5028827;28;20064;-64
2021/05/08 10:27:43;;;;;;;5.65;4.25;;;14.00;79.90;;;;;;5033047;28;19967;-64
2021/05/08 10:30:15;;;;;;;6.15;5.05;;;14.00;80.80;;;;;;5030702;28;20025;-63
2021/05/08 10:32:43;;;;;;;5.88;4.85;;;14.00;80.60;;;;;;5033091;28;20021;-64
2021/05/08 10:35:11;;;;;;;5.90;4.97;;;14.00;80.20;;;;;;5031363;28;20409;-64
2021/05/08 10:37:37;;;;;;;5.85;5.20;;;14.00;80.30;;;;;;5020524;28;20120;-64
2021/05/08 10:40:05;;;;;;;5.28;4.65;;;13.90;80.10;;;;;;5032111;28;20029;-63
2021/05/08 10:42:33;;;;;;;4.85;4.22;;;13.90;80.20;;;;;;5020241;28;20385;-64
2021/05/08 10:45:01;;;;;;;4.97;3.90;;;13.90;80.10;;;;;;5032079;28;20069;-64
2021/05/08 10:48:02;;;;;;;4.65;4.03;;;13.80;79.70;;;;;;5032592;28;20021;-64
2021/05/08 10:50:38;;;;;;;;;;;13.80;79.40;;;;;;5022785;28;20092;-64
2021/05/08 10:53:17;;;;;;;3.58;3.20;;;13.70;79.30;;;;;;5032300;28;19913;-64
2021/05/08 10:55:59;;;;;;;3.20;2.80;;;13.70;78.50;;;;;;5030895;28;20034;-64
2021/05/08 10:58:30;;;;;;;3.05;2.75;;;13.60;77.40;;;;;;5032391;28;20033;-64
2021/05/08 11:00:57;;;;;;;3.83;2.83;;;13.50;77.20;;;;;;5032583;28;20112;-64
2021/05/08 11:03:27;;;;;;;3.38;2.53;;;13.40;76.10;;;;;;5032619;28;20397;-64
2021/05/08 11:05:57;;;;;;;2.78;2.20;;;13.30;75.60;;;;;;5032254;28;20049;-63
2021/05/08 11:08:25;;;;;;;2.88;2.47;;;13.20;75.90;;;;;;5014879;28;20021;-64
2021/05/08 11:11:02;;;;;;;4.10;2.80;;;13.10;76.10;;;;;;5025617;28;20053;-64
2021/05/08 11:13:43;;;;;;;3.45;2.45;;;13.10;76.50;;;;;;5020875;28;20021;-64
2021/05/08 11:16:09;;;;;;;3.97;2.55;;;13.10;76.30;;;;;;5027049;28;20032;-64
2021/05/08 11:18:43;;;;;;;3.97;2.22;;;13.10;76.50;;;;;;5028454;28;20112;-64
2021/05/08 11:21:08;;;;;;;2.83;2.45;;;13.20;76.50;;;;;;5032321;28;20532;-62
2021/05/08 11:24:01;;;;;;;3.35;2.22;;;13.20;76.10;;;;;;5032252;28;20030;-64
2021/05/08 11:26:30;;;;;;;3.17;2.50;;;13.20;76.40;;;;;;5029513;28;20037;-62
2021/05/08 11:29:01;;;;;;;2.35;2.15;;;13.30;76.50;;;;;;5029875;28;20014;-64
2021/05/08 11:31:31;;;;;;;2.90;2.63;;;13.30;76.50;;;;;;5027829;28;20025;-64
2021/05/08 11:34:17;;;;;;;2.58;2.30;;;13.40;76.50;;;;;;5032782;28;20041;-64
2021/05/08 11:37:04;;;;;;;2.25;2.05;;;13.50;76.00;;;;;;5036179;28;20067;-64
2021/05/08 11:39:37;;;;;;;2.45;2.22;;;13.50;75.90;;;;;;5035878;28;20025;-62
2021/05/08 11:42:17;;;;;;;2.63;2.40;;;13.60;75.90;;;;;;5035308;28;20029;-64
2021/05/08 11:44:45;;;;;;;2.45;2.25;;;13.60;75.50;;;;;;5029268;28;20038;-64
2021/05/08 11:47:30;;;;;;;2.45;2.25;;;13.70;74.90;;;;;;5035677;28;20095;-62
2021/05/08 11:50:01;;;;;;;2.28;2.08;;;13.70;74.60;;;;;;5035413;28;20049;-62
2021/05/08 11:52:35;;;;;;;2.10;1.83;;;13.70;73.70;;;;;;5035612;28;20014;-62
2021/05/08 11:55:03;;;;;;;2.30;2.10;;;13.60;73.50;;;;;;5033822;28;20080;-64
2021/05/08 11:57:29;;;;;;;2.58;2.20;;;13.60;74.00;;;;;;5035506;28;20029;-62
2021/05/08 11:59:55;;;;;;;2.30;2.10;;;13.60;72.80;;;;;;5035458;28;20028;-62
2021/05/08 12:02:23;;;;;;;2.90;2.03;;;13.50;72.30;;;;;;5035024;28;20022;-62
2021/05/08 12:04:56;;;;;;;2.28;2.08;;;13.50;72.60;;;;;;5025861;28;20040;-62
2021/05/08 12:07:27;;;;;;;2.05;1.92;;;13.50;72.60;;;;;;5034420;28;20100;-62
2021/05/08 12:10:11;;;;;;;2.53;2.08;;;13.40;72.90;;;;;;5016937;28;20049;-64
2021/05/08 12:12:49;;;;;;;2.50;2.30;;;13.50;73.20;;;;;;5034855;28;20056;-63
2021/05/08 12:15:27;;;;;;;1.70;1.60;;;13.60;73.00;;;;;;5032386;28;20497;-63
2021/05/08 12:17:56;;;;;;;1.90;1.80;;;13.60;72.90;;;;;;5025770;28;20075;-63
2021/05/08 12:20:24;;;;;;;1.88;1.77;;;13.70;72.60;;;;;;5034749;28;20021;-65
2021/05/08 12:22:51;;;;;;;1.70;1.60;;;13.80;72.40;;;;;;5035196;28;20021;-62
2021/05/08 12:25:22;;;;;;;2.33;1.83;;;13.90;72.20;;;;;;5034660;28;20026;-63
2021/05/08 12:27:48;;;;;;;2.50;2.30;;;14.00;72.10;;;;;;5034985;28;20057;-63
2021/05/08 12:30:15;;;;;;;2.38;1.88;;;14.10;71.80;;;;;;5033640;28;20500;-63
2021/05/08 12:32:53;;;;;;;2.05;1.95;;;14.10;71.50;;;;;;5034897;28;20048;-63
2021/05/08 12:35:20;;;;;;;1.60;1.50;;;14.10;69.50;;;;;;5025546;28;20129;-63
2021/05/08 12:37:47;;;;;;;2.42;2.00;;;14.10;68.90;;;;;;5034805;28;20473;-63
2021/05/08 12:40:14;;;;;;;1.45;1.40;;;14.00;68.60;;;;;;5035069;28;20036;-63
2021/05/08 12:42:47;;;;;;;1.60;1.50;;;13.90;68.50;;;;;;5025014;28;20026;-63
2021/05/08 12:45:14;;;;;;;2.05;1.88;;;13.90;67.90;;;;;;5031296;28;20034;-63
2021/05/08 12:47:46;;;;;;;2.45;1.60;;;13.80;68.40;;;;;;5032723;28;20021;-63